Aviation Digital Data Service (ADDS)

Output produced by TAFs form (0419 UTC 19 April 2014)
found at http://aviationweather.gov/adds/tafs/
 
KLND 182339Z 1900/1924 26022G34KT P6SM SCT100 BKN150 
     FM190200 28011KT P6SM SCT120 BKN250 
     FM190500 VRB05KT P6SM SKC 
     FM192000 26010KT P6SM FEW060